Time;durP1;ratioP1;P1;durP2;ratioP2;P2;SDS_P1;SDS_P2;PMS_P1;PMS_P2;Temp;Humidity;BMP_temperature;BMP_pressure;BME280_temperature;BME280_humidity;BME280_pressure;Samples;Min_cycle;Max_cycle;Signal;HPM_P1;HPM_P2
2022/02/21 00:01:33;;;;;;;3.47;1.03;;;8.00;99.90;;;;;;5032350;28;20244;-61
2022/02/21 00:04:01;;;;;;;3.43;0.80;;;8.00;99.90;;;;;;5031698;28;20228;-61
2022/02/21 00:06:29;;;;;;;4.10;0.97;;;7.90;99.90;;;;;;5031963;28;20581;-61
2022/02/21 00:08:57;;;;;;;5.47;1.50;;;7.80;99.90;;;;;;5032084;28;20244;-60
2022/02/21 00:11:25;;;;;;;3.63;0.80;;;7.80;99.90;;;;;;5032215;28;20236;-61
2022/02/21 00:13:55;;;;;;;4.73;1.10;;;7.80;99.90;;;;;;5032179;28;20236;-61
2022/02/21 00:16:23;;;;;;;4.73;1.00;;;7.70;99.90;;;;;;5031569;28;20244;-61
2022/02/21 00:18:52;;;;;;;6.80;1.30;;;7.70;99.90;;;;;;5045112;28;20240;-61
2022/02/21 00:21:20;;;;;;;3.43;0.60;;;7.70;99.90;;;;;;5032056;28;20739;-61
2022/02/21 00:23:48;;;;;;;1.87;0.60;;;7.50;99.90;;;;;;5031043;28;20231;-61
2022/02/21 00:26:18;;;;;;;2.27;0.50;;;7.40;99.90;;;;;;5032082;28;20232;-61
2022/02/21 00:28:47;;;;;;;0.67;0.40;;;7.30;99.90;;;;;;5031843;28;20248;-61
2022/02/21 00:31:16;;;;;;;0.70;0.40;;;7.20;99.90;;;;;;5031895;28;20232;-61
2022/02/21 00:33:45;;;;;;;1.83;0.53;;;7.20;99.90;;;;;;5019854;28;20407;-61
2022/02/21 00:36:13;;;;;;;1.20;0.30;;;7.20;99.90;;;;;;5031653;28;20237;-61
2022/02/21 00:38:41;;;;;;;1.33;0.50;;;7.20;99.90;;;;;;5044302;28;20271;-61
2022/02/21 00:41:09;;;;;;;2.13;0.50;;;7.10;99.90;;;;;;5031690;28;20237;-61
2022/02/21 00:43:38;;;;;;;1.40;0.43;;;7.10;99.90;;;;;;5031327;28;20241;-61
2022/02/21 00:46:06;;;;;;;3.20;0.70;;;7.10;99.90;;;;;;5031704;28;20604;-61
2022/02/21 00:48:36;;;;;;;1.10;0.60;;;7.10;99.90;;;;;;5031580;28;20778;-61
2022/02/21 00:51:04;;;;;;;1.77;0.40;;;7.00;99.90;;;;;;5031705;28;20763;-61
2022/02/21 00:53:32;;;;;;;1.43;0.70;;;7.00;99.90;;;;;;5030650;28;20735;-61
2022/02/21 00:56:00;;;;;;;1.77;0.50;;;7.00;99.90;;;;;;5031487;28;20693;-61
2022/02/21 00:58:28;;;;;;;2.87;0.60;;;7.00;99.90;;;;;;5043955;28;20242;-61
2022/02/21 01:00:56;;;;;;;1.63;0.50;;;6.90;99.90;;;;;;5031497;28;20298;-61
2022/02/21 01:03:24;;;;;;;1.83;0.67;;;6.90;99.90;;;;;;5030961;28;20236;-61
2022/02/21 01:05:54;;;;;;;0.60;0.37;;;6.90;99.90;;;;;;5031346;28;20323;-61
2022/02/21 01:08:22;;;;;;;1.73;0.40;;;6.90;99.90;;;;;;5031106;28;20240;-61
2022/02/21 01:10:50;;;;;;;3.60;0.50;;;7.00;99.90;;;;;;5031142;28;20340;-61
2022/02/21 01:13:18;;;;;;;0.63;0.20;;;6.90;99.90;;;;;;5031068;28;20240;-61
2022/02/21 01:15:46;;;;;;;0.90;0.40;;;6.90;99.90;;;;;;5030780;28;20788;-61
2022/02/21 01:18:14;;;;;;;2.43;0.70;;;6.90;99.90;;;;;;5043920;28;20262;-61
2022/02/21 01:20:42;;;;;;;0.80;0.40;;;6.90;99.90;;;;;;5030732;28;20241;-61
2022/02/21 01:23:12;;;;;;;1.37;0.70;;;6.80;99.90;;;;;;5030318;28;20573;-61
2022/02/21 01:25:40;;;;;;;2.07;0.43;;;6.80;99.90;;;;;;5030720;28;20232;-61
2022/02/21 01:28:08;;;;;;;6.83;0.90;;;6.80;99.90;;;;;;5031034;28;20319;-61
2022/02/21 01:30:36;;;;;;;1.30;0.57;;;6.70;99.90;;;;;;5030940;28;20244;-61
2022/02/21 01:33:05;;;;;;;3.10;1.00;;;6.70;99.90;;;;;;5031380;28;20311;-61
2022/02/21 01:35:33;;;;;;;2.77;0.50;;;6.70;99.90;;;;;;5030501;28;20242;-62
2022/02/21 01:38:01;;;;;;;2.67;0.63;;;6.60;99.90;;;;;;5042818;28;20231;-63
2022/02/21 01:40:31;;;;;;;4.07;0.70;;;6.50;99.90;;;;;;5030995;28;20611;-63
2022/02/21 01:43:00;;;;;;;6.30;0.93;;;6.40;99.90;;;;;;5030750;28;20236;-63
2022/02/21 01:45:28;;;;;;;2.60;0.60;;;6.20;99.90;;;;;;5030240;28;20232;-63
2022/02/21 01:47:56;;;;;;;2.30;0.40;;;6.10;99.90;;;;;;5030750;28;20248;-63
2022/02/21 01:50:24;;;;;;;2.10;0.50;;;6.00;99.90;;;;;;5030532;28;20232;-63
2022/02/21 01:52:53;;;;;;;1.33;0.60;;;6.00;99.90;;;;;;5030623;28;20712;-63
2022/02/21 01:55:22;;;;;;;3.03;0.80;;;6.00;99.90;;;;;;5030000;28;20704;-63
2022/02/21 01:57:51;;;;;;;4.23;0.97;;;5.90;99.90;;;;;;5040945;28;20777;-63
2022/02/21 02:00:20;;;;;;;8.17;1.17;;;5.90;99.90;;;;;;5032317;28;20239;-63
2022/02/21 02:02:48;;;;;;;6.80;1.90;;;5.90;99.90;;;;;;5030523;28;20244;-63
2022/02/21 02:05:17;;;;;;;3.97;0.90;;;5.90;99.90;;;;;;5030519;28;20240;-63
2022/02/21 02:07:46;;;;;;;10.20;1.50;;;5.80;99.90;;;;;;5030319;28;20268;-63
2022/02/21 02:10:14;;;;;;;7.87;1.37;;;5.80;99.90;;;;;;5030336;28;20234;-63
2022/02/21 02:12:43;;;;;;;8.50;1.37;;;5.80;99.90;;;;;;5030364;28;20236;-63
2022/02/21 02:15:14;;;;;;;10.83;1.47;;;5.90;99.90;;;;;;5030376;28;20620;-63
2022/02/21 02:17:43;;;;;;;10.60;1.67;;;5.90;99.90;;;;;;5039692;28;20240;-63
2022/02/21 02:20:12;;;;;;;5.97;1.40;;;5.90;99.90;;;;;;5031853;28;20247;-63
2022/02/21 02:22:42;;;;;;;8.40;2.50;;;5.90;99.90;;;;;;5030026;28;20275;-63
2022/02/21 02:25:10;;;;;;;7.13;1.40;;;5.90;99.90;;;;;;5029669;28;20705;-63
2022/02/21 02:27:38;;;;;;;10.37;1.83;;;5.90;99.90;;;;;;5030769;28;20244;-63
2022/02/21 02:30:08;;;;;;;13.73;2.47;;;5.90;99.90;;;;;;5033935;28;20236;-63
2022/02/21 02:32:36;;;;;;;9.47;2.33;;;5.90;99.90;;;;;;5034241;28;20236;-63
2022/02/21 02:35:05;;;;;;;17.57;3.20;;;5.90;99.90;;;;;;5034193;28;20240;-63
2022/02/21 02:37:33;;;;;;;10.90;2.40;;;5.90;99.90;;;;;;5041851;28;20242;-63
2022/02/21 02:40:03;;;;;;;11.40;2.47;;;5.90;99.90;;;;;;5038158;28;20485;-63
2022/02/21 02:42:32;;;;;;;17.97;3.33;;;5.80;99.90;;;;;;5033902;28;20232;-63
2022/02/21 02:45:00;;;;;;;19.73;3.63;;;5.80;99.90;;;;;;5033692;28;20244;-63
2022/02/21 02:47:28;;;;;;;16.83;3.20;;;5.80;99.90;;;;;;5033655;28;20317;-64
2022/02/21 02:49:56;;;;;;;18.37;2.73;;;5.80;99.90;;;;;;5033772;28;20675;-63
2022/02/21 02:52:24;;;;;;;16.03;3.60;;;5.80;99.90;;;;;;5033796;28;20308;-63
2022/02/21 02:54:52;;;;;;;12.30;2.20;;;5.80;99.90;;;;;;5032598;28;20236;-63
2022/02/21 02:57:22;;;;;;;12.67;2.57;;;5.70;99.90;;;;;;5026528;28;20282;-63
2022/02/21 02:59:50;;;;;;;16.73;3.00;;;5.60;99.90;;;;;;5039192;28;20250;-63
2022/02/21 03:02:18;;;;;;;13.93;3.10;;;5.60;99.90;;;;;;5033509;28;20240;-63
2022/02/21 03:04:46;;;;;;;19.00;2.90;;;5.60;99.90;;;;;;5033309;28;20254;-63
2022/02/21 03:07:14;;;;;;;17.70;3.47;;;5.50;99.90;;;;;;5033417;28;20241;-63
2022/02/21 03:09:42;;;;;;;13.67;2.63;;;5.50;99.90;;;;;;5033188;28;20471;-63
2022/02/21 03:12:11;;;;;;;17.07;3.57;;;5.50;99.90;;;;;;5033548;28;20240;-63
2022/02/21 03:14:40;;;;;;;22.30;3.13;;;5.50;99.90;;;;;;5033104;28;20262;-63
2022/02/21 03:17:08;;;;;;;16.47;2.60;;;5.50;99.90;;;;;;5038060;28;20289;-63
2022/02/21 03:19:36;;;;;;;19.13;3.40;;;5.40;99.90;;;;;;5040798;28;20248;-63
2022/02/21 03:22:05;;;;;;;20.40;3.67;;;5.40;99.90;;;;;;5016551;28;20467;-63
2022/02/21 03:24:33;;;;;;;17.23;3.50;;;5.40;99.90;;;;;;5032967;28;21003;-63
2022/02/21 03:27:01;;;;;;;15.63;2.80;;;5.40;99.90;;;;;;5033407;28;20848;-63
2022/02/21 03:29:29;;;;;;;13.03;2.93;;;5.30;99.90;;;;;;5032628;28;20237;-63
2022/02/21 03:31:59;;;;;;;19.57;3.50;;;5.20;99.90;;;;;;5033116;28;20238;-63
2022/02/21 03:34:32;;;;;;;17.17;3.10;;;5.20;99.90;;;;;;5032784;28;20853;-63
2022/02/21 03:37:00;;;;;;;15.47;3.10;;;5.10;99.90;;;;;;5036533;28;20231;-63
2022/02/21 03:39:28;;;;;;;17.90;2.90;;;5.10;99.90;;;;;;5041398;28;20235;-63
2022/02/21 03:41:56;;;;;;;23.50;3.03;;;5.10;99.90;;;;;;5032871;28;20244;-63
2022/02/21 03:44:24;;;;;;;21.10;3.13;;;5.10;99.90;;;;;;5032598;28;20471;-63
2022/02/21 03:46:53;;;;;;;23.53;3.30;;;5.10;99.90;;;;;;5032963;28;20247;-63
2022/02/21 03:49:22;;;;;;;20.90;3.77;;;5.10;99.90;;;;;;5032532;28;20235;-63
2022/02/21 03:51:50;;;;;;;17.40;3.57;;;5.10;99.90;;;;;;5031789;28;20471;-63
2022/02/21 03:54:18;;;;;;;18.17;3.60;;;5.10;99.90;;;;;;5032436;28;20486;-63
2022/02/21 03:56:46;;;;;;;21.33;4.27;;;5.00;99.90;;;;;;5034041;28;20555;-63
2022/02/21 03:59:15;;;;;;;21.57;3.47;;;5.10;99.90;;;;;;5035035;28;20482;-63
2022/02/21 04:01:43;;;;;;;17.50;4.37;;;5.10;99.90;;;;;;5024656;28;20240;-63
2022/02/21 04:04:11;;;;;;;14.20;3.60;;;5.10;99.90;;;;;;5032424;28;20472;-63
2022/02/21 04:06:41;;;;;;;13.27;2.87;;;5.10;99.90;;;;;;5032148;28;20475;-63
2022/02/21 04:09:09;;;;;;;16.10;3.53;;;5.10;99.90;;;;;;5028011;28;20506;-63
2022/02/21 04:11:37;;;;;;;15.47;3.17;;;5.00;99.90;;;;;;5032296;28;20499;-63
2022/02/21 04:14:05;;;;;;;13.60;2.80;;;4.90;99.90;;;;;;5032304;28;20481;-63
2022/02/21 04:16:34;;;;;;;14.37;2.47;;;4.90;99.90;;;;;;5031971;28;21029;-63
2022/02/21 04:19:03;;;;;;;18.83;3.50;;;4.80;99.90;;;;;;5044587;28;20489;-63
2022/02/21 04:21:31;;;;;;;18.93;3.00;;;4.80;99.90;;;;;;5031428;28;20470;-63
2022/02/21 04:24:01;;;;;;;16.63;3.53;;;4.90;99.90;;;;;;5031604;28;20831;-63
2022/02/21 04:26:29;;;;;;;17.37;2.40;;;4.90;99.90;;;;;;5031781;28;20459;-63
2022/02/21 04:28:57;;;;;;;19.33;3.10;;;4.90;99.90;;;;;;5031544;28;20483;-63
2022/02/21 04:31:25;;;;;;;14.10;2.90;;;4.80;99.90;;;;;;5031013;28;20487;-63
2022/02/21 04:33:54;;;;;;;19.73;4.30;;;4.90;99.90;;;;;;5031488;28;20500;-63
2022/02/21 04:36:22;;;;;;;17.57;3.23;;;4.90;99.90;;;;;;5031605;28;20463;-63
2022/02/21 04:38:51;;;;;;;13.30;2.67;;;4.90;99.90;;;;;;5044266;28;20478;-63
2022/02/21 04:41:21;;;;;;;17.20;2.57;;;4.90;99.90;;;;;;5031381;28;20474;-63
2022/02/21 04:43:49;;;;;;;17.80;2.77;;;4.90;99.90;;;;;;5031269;28;20478;-63
2022/02/21 04:46:18;;;;;;;18.30;3.07;;;4.90;99.90;;;;;;5031580;28;20494;-63
2022/02/21 04:48:46;;;;;;;14.40;3.17;;;4.90;99.90;;;;;;5031152;28;21004;-63
2022/02/21 04:51:14;;;;;;;20.90;3.20;;;4.90;99.90;;;;;;5030360;28;20470;-63
2022/02/21 04:53:42;;;;;;;15.83;2.80;;;4.80;99.90;;;;;;5030564;28;20487;-63
2022/02/21 04:56:10;;;;;;;14.23;2.70;;;4.80;99.90;;;;;;5031092;28;20477;-63
2022/02/21 04:58:40;;;;;;;11.47;2.47;;;4.70;99.90;;;;;;5044066;28;20480;-63
2022/02/21 05:01:08;;;;;;;13.20;2.50;;;4.60;99.90;;;;;;5031072;28;20479;-63
2022/02/21 05:03:36;;;;;;;16.40;2.80;;;4.60;99.90;;;;;;5027726;28;20323;-63
2022/02/21 05:06:04;;;;;;;12.37;2.23;;;4.60;99.90;;;;;;5020934;28;20520;-63
2022/02/21 05:08:33;;;;;;;16.13;2.90;;;4.50;99.90;;;;;;5014435;28;20482;-63
2022/02/21 05:11:01;;;;;;;17.63;3.03;;;4.50;99.90;;;;;;5031168;28;20479;-63
2022/02/21 05:13:29;;;;;;;15.50;2.73;;;4.60;99.90;;;;;;5030629;28;20807;-63
2022/02/21 05:15:58;;;;;;;16.47;2.90;;;4.60;99.90;;;;;;5030965;28;20545;-63
2022/02/21 05:18:27;;;;;;;16.27;2.50;;;4.60;99.90;;;;;;5043853;28;20477;-63
2022/02/21 05:20:55;;;;;;;13.63;2.60;;;4.50;99.90;;;;;;5029742;28;20471;-63
2022/02/21 05:23:23;;;;;;;8.87;2.20;;;4.50;99.90;;;;;;5030793;28;20842;-63
2022/02/21 05:25:51;;;;;;;14.77;2.73;;;4.50;99.90;;;;;;5030994;28;20475;-63
2022/02/21 05:28:19;;;;;;;11.47;2.77;;;4.40;99.90;;;;;;5030759;28;20475;-63
2022/02/21 05:30:47;;;;;;;10.03;2.47;;;4.40;99.90;;;;;;5030818;28;20809;-63
2022/02/21 05:33:17;;;;;;;15.17;3.03;;;4.40;99.90;;;;;;5030556;28;20475;-63
2022/02/21 05:35:45;;;;;;;12.53;2.73;;;4.30;99.90;;;;;;5029882;28;20485;-62
2022/02/21 05:38:13;;;;;;;13.77;2.37;;;4.30;99.90;;;;;;5037654;28;20470;-63
2022/02/21 05:40:41;;;;;;;18.10;3.30;;;4.40;99.90;;;;;;5030322;28;20506;-63
2022/02/21 05:43:09;;;;;;;12.53;2.30;;;4.40;99.90;;;;;;5030697;28;20832;-63
2022/02/21 05:45:37;;;;;;;15.03;2.77;;;4.40;99.90;;;;;;5030604;28;20479;-63
2022/02/21 05:48:06;;;;;;;16.13;3.00;;;4.40;99.90;;;;;;5031103;28;20467;-63
2022/02/21 05:50:35;;;;;;;17.57;3.67;;;4.10;99.90;;;;;;5029676;28;20471;-63
2022/02/21 05:53:04;;;;;;;15.37;3.10;;;3.90;99.90;;;;;;5030894;28;20978;-63
2022/02/21 05:55:32;;;;;;;16.10;3.13;;;4.00;99.90;;;;;;5025743;28;20471;-63
2022/02/21 05:58:01;;;;;;;13.03;2.67;;;4.00;99.90;;;;;;5025249;28;20510;-63
2022/02/21 06:00:29;;;;;;;16.20;3.07;;;3.90;99.90;;;;;;5030065;28;20485;-62
2022/02/21 06:02:57;;;;;;;13.93;3.77;;;3.90;99.90;;;;;;5031854;28;20818;-62
2022/02/21 06:05:26;;;;;;;13.90;2.87;;;3.90;99.90;;;;;;5020042;28;20968;-63
2022/02/21 06:07:55;;;;;;;13.40;3.10;;;4.00;99.90;;;;;;5014683;28;21059;-63
2022/02/21 06:10:23;;;;;;;18.67;3.00;;;3.90;99.90;;;;;;5032773;28;20830;-62
2022/02/21 06:12:51;;;;;;;11.90;2.77;;;4.00;99.90;;;;;;5031028;28;20470;-63
2022/02/21 06:15:19;;;;;;;11.30;3.00;;;3.90;99.90;;;;;;5024891;28;20478;-63
2022/02/21 06:17:48;;;;;;;11.93;2.40;;;3.90;99.90;;;;;;5029143;28;20473;-63
2022/02/21 06:20:16;;;;;;;17.63;3.27;;;3.90;99.90;;;;;;5024013;28;20481;-63
2022/02/21 06:22:44;;;;;;;17.77;2.80;;;3.90;99.90;;;;;;5022578;28;21660;-63
2022/02/21 06:25:13;;;;;;;10.40;2.37;;;3.90;99.90;;;;;;5028841;28;20829;-63
2022/02/21 06:27:41;;;;;;;19.60;2.90;;;3.90;99.90;;;;;;5031831;28;20473;-63
2022/02/21 06:30:10;;;;;;;10.87;2.17;;;3.80;99.90;;;;;;5024376;28;20470;-63
2022/02/21 06:32:39;;;;;;;20.33;3.00;;;3.90;99.90;;;;;;5014869;28;20490;-63
2022/02/21 06:35:10;;;;;;;15.37;2.47;;;3.90;99.90;;;;;;5028248;28;20479;-63
2022/02/21 06:37:43;;;;;;;11.83;2.20;;;3.90;99.90;;;;;;5027172;28;20472;-63
2022/02/21 06:40:14;;;;;;;10.60;2.17;;;3.80;99.90;;;;;;5031537;28;20569;-62
2022/02/21 06:42:42;;;;;;;17.80;2.70;;;3.90;99.90;;;;;;5034860;28;20572;-63
2022/02/21 06:45:11;;;;;;;13.53;2.60;;;3.90;99.90;;;;;;5039511;28;20965;-63
2022/02/21 06:47:39;;;;;;;10.63;2.40;;;3.90;99.90;;;;;;5053633;28;20838;-63
2022/02/21 06:50:08;;;;;;;19.03;3.03;;;3.90;99.90;;;;;;5037554;28;20815;-63
2022/02/21 06:52:36;;;;;;;14.30;2.50;;;3.80;99.90;;;;;;5033906;28;20478;-63
2022/02/21 06:55:06;;;;;;;13.57;2.83;;;3.80;99.90;;;;;;5032951;28;20853;-63
2022/02/21 06:57:35;;;;;;;9.97;2.50;;;3.80;99.90;;;;;;5000731;28;20839;-63
2022/02/21 07:00:05;;;;;;;9.23;1.83;;;3.70;99.90;;;;;;4995652;28;21066;-63
2022/02/21 07:02:33;;;;;;;8.83;1.80;;;3.60;99.90;;;;;;4954244;28;20469;-63
2022/02/21 07:05:01;;;;;;;7.87;1.90;;;3.40;99.90;;;;;;4988424;28;20531;-63
2022/02/21 07:07:29;;;;;;;12.37;2.17;;;3.40;99.90;;;;;;4973365;28;20463;-63
2022/02/21 07:09:57;;;;;;;15.90;2.80;;;3.40;99.90;;;;;;4987349;28;20473;-63
2022/02/21 07:12:25;;;;;;;24.63;2.70;;;3.40;99.90;;;;;;4973379;28;20482;-63
2022/02/21 07:14:55;;;;;;;16.87;2.73;;;3.40;99.90;;;;;;4977090;28;20485;-63
2022/02/21 07:17:24;;;;;;;13.80;3.10;;;3.50;99.90;;;;;;4986974;28;20551;-63
2022/02/21 07:19:54;;;;;;;17.30;3.53;;;3.60;99.90;;;;;;4998003;28;20483;-63
2022/02/21 07:22:25;;;;;;;15.40;2.87;;;3.70;99.90;;;;;;4992453;28;20579;-63
2022/02/21 07:24:53;;;;;;;12.67;2.63;;;3.80;99.90;;;;;;4991914;28;20487;-63
2022/02/21 07:27:24;;;;;;;14.17;2.40;;;3.90;99.90;;;;;;4991911;28;20576;-63
2022/02/21 07:29:53;;;;;;;14.17;2.30;;;3.90;99.90;;;;;;4992486;28;20474;-63
2022/02/21 07:32:23;;;;;;;13.67;2.40;;;4.00;99.90;;;;;;4988819;28;20538;-62
2022/02/21 07:34:51;;;;;;;10.50;1.97;;;4.20;99.90;;;;;;4990436;28;20475;-63
2022/02/21 07:37:19;;;;;;;15.07;2.20;;;4.10;99.90;;;;;;4991049;28;20501;-63
2022/02/21 07:39:47;;;;;;;12.30;2.67;;;4.10;99.90;;;;;;4978189;28;20806;-63
2022/02/21 07:42:15;;;;;;;13.30;2.67;;;4.00;99.90;;;;;;4984786;28;20489;-63
2022/02/21 07:44:45;;;;;;;13.57;2.70;;;4.00;99.90;;;;;;5001672;28;20562;-63
2022/02/21 07:47:13;;;;;;;17.87;3.27;;;4.00;99.90;;;;;;4992371;28;20474;-63
2022/02/21 07:49:43;;;;;;;15.30;2.60;;;4.00;99.90;;;;;;4992134;28;20469;-63
2022/02/21 07:52:11;;;;;;;11.80;2.50;;;4.00;99.90;;;;;;4992179;28;20534;-63
2022/02/21 07:54:45;;;;;;;11.90;2.63;;;4.00;99.90;;;;;;4991912;28;20848;-63
2022/02/21 07:57:13;;;;;;;11.80;2.53;;;4.00;99.90;;;;;;4975158;28;1319481;-63
2022/02/21 07:59:43;;;;;;;10.87;2.07;;;4.00;99.90;;;;;;5047690;28;20258;-63
2022/02/21 08:02:11;;;;;;;12.77;3.03;;;4.00;99.90;;;;;;5032268;28;20478;-63
2022/02/21 08:04:39;;;;;;;12.77;1.97;;;3.90;99.90;;;;;;5032058;28;20469;-63
2022/02/21 08:07:08;;;;;;;9.87;2.30;;;3.90;99.90;;;;;;5032520;28;20977;-63
2022/02/21 08:09:37;;;;;;;15.60;2.77;;;3.80;99.90;;;;;;5032300;28;20838;-63
2022/02/21 08:12:07;;;;;;;11.83;2.20;;;3.70;99.90;;;;;;5031922;28;20489;-63
2022/02/21 08:14:35;;;;;;;12.80;2.60;;;3.70;99.90;;;;;;5031930;28;20916;-63
2022/02/21 08:17:04;;;;;;;16.80;3.37;;;3.60;99.90;;;;;;5036438;28;20638;-63
2022/02/21 08:19:32;;;;;;;12.93;2.40;;;3.50;99.90;;;;;;5040661;28;20471;-63
2022/02/21 08:22:00;;;;;;;11.87;2.33;;;3.50;99.90;;;;;;5017710;28;20533;-63
2022/02/21 08:24:30;;;;;;;15.57;2.67;;;3.60;99.90;;;;;;5031758;28;20470;-63
2022/02/21 08:26:58;;;;;;;10.90;2.13;;;3.70;99.90;;;;;;5031257;28;20239;-63
2022/02/21 08:29:26;;;;;;;12.60;2.13;;;3.70;99.90;;;;;;5031815;28;20990;-63
2022/02/21 08:31:55;;;;;;;18.93;2.57;;;3.80;99.90;;;;;;5032118;28;20493;-63
2022/02/21 08:34:27;;;;;;;9.60;2.20;;;3.80;99.90;;;;;;5031633;28;20475;-62
2022/02/21 08:36:56;;;;;;;13.63;2.63;;;3.80;99.90;;;;;;5034901;28;20485;-62
2022/02/21 08:39:26;;;;;;;11.53;2.20;;;3.90;99.90;;;;;;5041066;28;20478;-62
2022/02/21 08:41:55;;;;;;;13.83;2.73;;;3.90;99.90;;;;;;5031073;28;20489;-63
2022/02/21 08:44:25;;;;;;;12.80;2.90;;;4.00;99.90;;;;;;5023417;28;20468;-62
2022/02/21 08:46:53;;;;;;;12.57;2.60;;;4.00;99.90;;;;;;5011968;28;20480;-63
2022/02/21 08:49:21;;;;;;;12.00;2.43;;;4.10;99.90;;;;;;5021437;28;20987;-62
2022/02/21 08:51:49;;;;;;;10.83;2.33;;;4.10;99.90;;;;;;5030642;28;20983;-63
2022/02/21 08:54:19;;;;;;;14.33;2.80;;;4.10;99.90;;;;;;5020962;28;20474;-63
2022/02/21 08:56:47;;;;;;;11.87;2.63;;;4.10;99.90;;;;;;5028053;28;20487;-63
2022/02/21 08:59:18;;;;;;;15.93;2.70;;;4.10;99.90;;;;;;5028965;28;20474;-63
2022/02/21 09:01:47;;;;;;;13.37;2.67;;;4.10;99.90;;;;;;5034585;28;20496;-63
2022/02/21 09:04:32;;;;;;;12.17;2.20;;;4.10;99.90;;;;;;5025429;28;20509;-63
2022/02/21 09:07:00;;;;;;;18.17;2.83;;;4.20;99.90;;;;;;5050548;28;20467;-63
2022/02/21 09:09:29;;;;;;;13.27;2.90;;;4.30;99.90;;;;;;5020617;28;20319;-62
2022/02/21 09:11:57;;;;;;;17.97;2.70;;;4.40;99.90;;;;;;5026239;28;20836;-63
2022/02/21 09:14:26;;;;;;;13.80;3.03;;;4.50;99.90;;;;;;5030345;28;20478;-63
2022/02/21 09:16:55;;;;;;;13.23;3.13;;;4.50;99.90;;;;;;5030839;28;20483;-64
2022/02/21 09:19:25;;;;;;;10.77;2.50;;;4.50;99.90;;;;;;5023056;28;20530;-63
2022/02/21 09:21:53;;;;;;;17.23;3.33;;;4.50;99.90;;;;;;5023045;28;20471;-63
2022/02/21 09:24:21;;;;;;;14.17;2.23;;;4.50;99.90;;;;;;5037421;28;20498;-63
2022/02/21 09:26:50;;;;;;;11.70;2.63;;;4.50;99.90;;;;;;5035899;28;20483;-63
2022/02/21 09:29:18;;;;;;;13.93;2.60;;;4.50;99.90;;;;;;5038790;28;20558;-63
2022/02/21 09:31:47;;;;;;;12.27;2.63;;;4.60;99.90;;;;;;5043448;28;20840;-63
2022/02/21 09:34:15;;;;;;;10.83;2.50;;;4.70;99.90;;;;;;5049704;28;20880;-63
2022/02/21 09:36:43;;;;;;;16.10;2.50;;;4.70;99.90;;;;;;5043562;28;20470;-63
2022/02/21 09:39:12;;;;;;;18.80;3.53;;;4.80;99.90;;;;;;5049165;28;20467;-63
2022/02/21 09:41:45;;;;;;;15.70;2.40;;;4.80;99.90;;;;;;5026042;28;20493;-64
2022/02/21 09:44:13;;;;;;;13.43;2.80;;;4.90;99.90;;;;;;5026896;28;20472;-63
2022/02/21 09:46:43;;;;;;;11.87;2.27;;;4.80;99.90;;;;;;5039695;28;20482;-62
2022/02/21 09:49:14;;;;;;;11.93;2.70;;;4.90;99.90;;;;;;5031986;28;20480;-63
2022/02/21 09:51:42;;;;;;;6.80;2.30;;;4.90;99.90;;;;;;5050286;28;20473;-63
2022/02/21 09:54:11;;;;;;;8.50;2.33;;;5.00;99.90;;;;;;5050200;28;20318;-63
2022/02/21 09:56:42;;;;;;;10.93;2.67;;;5.20;99.90;;;;;;5040850;28;20651;-62
2022/02/21 09:59:11;;;;;;;14.07;2.63;;;5.20;99.90;;;;;;5042159;28;20240;-63
2022/02/21 10:01:40;;;;;;;11.90;2.30;;;5.30;99.90;;;;;;5030301;28;21065;-63
2022/02/21 10:04:13;;;;;;;13.90;2.83;;;5.30;99.90;;;;;;5030415;28;20489;-63
2022/02/21 10:06:41;;;;;;;12.23;2.80;;;5.40;99.90;;;;;;5030367;28;20990;-63
2022/02/21 10:09:12;;;;;;;15.80;2.80;;;5.40;99.90;;;;;;5038236;28;20469;-63
2022/02/21 10:11:42;;;;;;;10.97;2.60;;;5.50;99.90;;;;;;5038094;28;20483;-63
2022/02/21 10:14:12;;;;;;;18.83;3.10;;;5.50;99.90;;;;;;5037641;28;20485;-63
2022/02/21 10:16:43;;;;;;;15.60;2.37;;;5.60;99.90;;;;;;5034513;28;21006;-63
2022/02/21 10:19:20;;;;;;;8.60;2.30;;;5.70;99.90;;;;;;5041726;28;20243;-63
2022/02/21 10:21:57;;;;;;;10.57;2.33;;;5.70;99.90;;;;;;5036449;28;20560;-63
2022/02/21 10:24:26;;;;;;;10.37;2.33;;;5.70;99.90;;;;;;5046223;28;20494;-63
2022/02/21 10:26:56;;;;;;;9.73;2.53;;;5.70;99.90;;;;;;5044128;28;20267;-63
2022/02/21 10:29:24;;;;;;;8.60;2.30;;;5.80;99.90;;;;;;5039896;28;20848;-63
2022/02/21 10:31:52;;;;;;;11.17;2.27;;;5.70;99.90;;;;;;5030251;28;20240;-62
2022/02/21 10:34:36;;;;;;;14.50;2.60;;;5.70;99.90;;;;;;5030573;28;20770;-63
2022/02/21 10:37:06;;;;;;;9.90;2.10;;;5.70;99.90;;;;;;5029786;28;20236;-63
2022/02/21 10:39:34;;;;;;;12.80;2.27;;;5.70;99.90;;;;;;5036572;28;20233;-63
2022/02/21 10:42:06;;;;;;;10.70;2.30;;;5.70;99.90;;;;;;5029077;28;21637;-63
2022/02/21 10:44:38;;;;;;;10.70;2.60;;;5.60;99.90;;;;;;5035152;28;20231;-63
2022/02/21 10:47:09;;;;;;;10.27;2.37;;;5.60;99.90;;;;;;5049996;28;20485;-63
2022/02/21 10:49:54;;;;;;;10.90;2.13;;;5.60;99.90;;;;;;5046692;28;20239;-63
2022/02/21 10:52:26;;;;;;;15.93;2.80;;;5.60;99.90;;;;;;5051680;28;20630;-63
2022/02/21 10:54:55;;;;;;;10.17;2.23;;;5.60;99.90;;;;;;5040098;28;20249;-63
2022/02/21 10:57:25;;;;;;;12.23;3.33;;;5.50;99.90;;;;;;5033515;28;20227;-63
2022/02/21 10:59:55;;;;;;;11.37;2.20;;;5.50;99.90;;;;;;5033684;28;20482;-63
2022/02/21 11:02:24;;;;;;;9.77;2.40;;;5.40;99.90;;;;;;5033515;28;20493;-63
2022/02/21 11:04:56;;;;;;;8.77;2.20;;;5.40;99.90;;;;;;5041541;28;20514;-63
2022/02/21 11:07:26;;;;;;;9.40;2.27;;;5.40;99.90;;;;;;5051384;28;20511;-63
2022/02/21 11:10:01;;;;;;;9.00;2.43;;;5.30;99.90;;;;;;5047110;28;20485;-63
2022/02/21 11:12:35;;;;;;;9.93;2.53;;;5.30;99.90;;;;;;5052092;28;20465;-63
2022/02/21 11:15:04;;;;;;;11.50;2.20;;;5.20;99.90;;;;;;5038385;28;20485;-63
2022/02/21 11:17:32;;;;;;;14.23;3.00;;;5.20;99.90;;;;;;5033351;28;20478;-63
2022/02/21 11:20:03;;;;;;;9.93;2.77;;;5.20;99.90;;;;;;5037965;28;20502;-62
2022/02/21 11:22:33;;;;;;;9.50;2.47;;;5.10;99.90;;;;;;5047826;28;20516;-63
2022/02/21 11:25:08;;;;;;;10.47;2.50;;;5.10;99.90;;;;;;5045885;28;21054;-63
2022/02/21 11:27:52;;;;;;;10.63;2.17;;;5.10;99.90;;;;;;5033132;28;20485;-63
2022/02/21 11:30:24;;;;;;;13.87;3.33;;;5.20;99.90;;;;;;5042045;28;20486;-63
2022/02/21 11:33:07;;;;;;;10.17;2.73;;;5.10;99.90;;;;;;5053032;28;20489;-63
2022/02/21 11:35:39;;;;;;;10.23;2.87;;;5.10;99.90;;;;;;5044895;28;20461;-63
2022/02/21 11:38:18;;;;;;;7.03;2.40;;;5.10;99.90;;;;;;5052696;28;20890;-63
2022/02/21 11:40:54;;;;;;;11.97;2.37;;;5.00;99.90;;;;;;5044258;28;20492;-63
2022/02/21 11:43:27;;;;;;;5.07;2.03;;;5.00;99.90;;;;;;5052356;28;20657;-63
2022/02/21 11:45:55;;;;;;;6.37;2.43;;;5.00;99.90;;;;;;5044455;28;20528;-63
2022/02/21 11:48:24;;;;;;;5.13;2.30;;;4.90;99.90;;;;;;5052211;28;20475;-63
2022/02/21 11:51:00;;;;;;;9.83;2.43;;;4.90;99.90;;;;;;5044161;28;20470;-62
2022/02/21 11:53:31;;;;;;;6.83;2.70;;;4.90;99.90;;;;;;5052028;28;21082;-63
2022/02/21 11:56:00;;;;;;;6.30;2.67;;;5.00;99.90;;;;;;5044548;28;20489;-63
2022/02/21 11:58:36;;;;;;;7.00;2.63;;;4.90;99.90;;;;;;5050856;28;20474;-63
2022/02/21 12:01:20;;;;;;;6.17;3.00;;;4.90;99.90;;;;;;5035730;28;20545;-62
2022/02/21 12:04:16;;;;;;;8.67;3.70;;;4.90;99.90;;;;;;5026630;28;20638;-62
2022/02/21 12:06:54;;;;;;;6.87;3.00;;;4.90;99.90;;;;;;5019150;28;20474;-62
2022/02/21 12:09:23;;;;;;;8.53;4.63;;;4.90;99.90;;;;;;5024499;28;20480;-62
2022/02/21 12:11:51;;;;;;;9.13;3.87;;;4.80;99.90;;;;;;5020798;28;20486;-62
2022/02/21 12:14:22;;;;;;;9.37;3.53;;;4.80;99.90;;;;;;5025748;28;20479;-62
2022/02/21 12:17:02;;;;;;;6.37;3.37;;;4.80;99.90;;;;;;5024118;28;20724;-63
2022/02/21 12:19:31;;;;;;;8.73;3.20;;;4.80;99.90;;;;;;5026601;28;20510;-62
2022/02/21 12:22:15;;;;;;;7.23;2.13;;;4.70;99.90;;;;;;5030062;28;20475;-62
2022/02/21 12:25:12;;;;;;;4.60;1.80;;;4.70;99.90;;;;;;5036472;28;20473;-62
2022/02/21 12:28:11;;;;;;;4.27;1.90;;;4.70;99.90;;;;;;5023709;28;20983;-63
2022/02/21 12:30:42;;;;;;;5.73;2.30;;;4.70;99.90;;;;;;5042423;28;20524;-62
2022/02/21 12:33:12;;;;;;;4.37;1.80;;;4.70;99.90;;;;;;5041963;28;20553;-62
2022/02/21 12:35:45;;;;;;;2.33;1.53;;;4.70;99.90;;;;;;5031899;28;20561;-62
2022/02/21 12:38:15;;;;;;;5.37;1.73;;;4.70;99.90;;;;;;5022655;28;20629;-62
2022/02/21 12:41:02;;;;;;;4.70;2.17;;;4.70;99.90;;;;;;5015392;28;20572;-62
2022/02/21 12:43:48;;;;;;;3.37;1.70;;;4.70;99.90;;;;;;5028915;28;20574;-62
2022/02/21 12:46:17;;;;;;;3.80;2.10;;;4.60;99.90;;;;;;5028129;28;20480;-62
2022/02/21 12:48:46;;;;;;;2.70;1.40;;;4.60;99.90;;;;;;5035963;28;20565;-62
2022/02/21 12:51:22;;;;;;;4.70;1.40;;;4.60;99.90;;;;;;5043113;28;20866;-62
2022/02/21 12:53:57;;;;;;;2.70;1.37;;;4.60;99.90;;;;;;5051045;28;20473;-62
2022/02/21 12:56:26;;;;;;;3.67;1.43;;;4.60;99.90;;;;;;5042712;28;20476;-63
2022/02/21 12:58:57;;;;;;;6.17;1.77;;;4.50;99.90;;;;;;5044767;28;20487;-62
2022/02/21 13:01:28;;;;;;;3.80;1.30;;;4.50;99.90;;;;;;5022369;28;20846;-62
2022/02/21 13:04:01;;;;;;;2.43;1.50;;;4.50;99.90;;;;;;5025500;28;20469;-62